createdAt,value
2019-01-04T00:01:37.973Z,74.42
2019-01-04T00:04:10.944Z,74.55
2019-01-04T00:06:41.732Z,73.86
2019-01-04T00:09:12.534Z,73.73
2019-01-04T00:11:43.596Z,73.93
2019-01-04T00:14:14.506Z,73.47
2019-01-04T00:16:45.336Z,73.84
2019-01-04T00:19:16.165Z,73.84
2019-01-04T00:21:46.973Z,73.51
2019-01-04T00:24:17.797Z,73.93
2019-01-04T00:26:48.584Z,73.63
2019-01-04T00:29:20.360Z,73.53
2019-01-04T00:31:51.152Z,73.33
2019-01-04T00:34:21.954Z,72.99
2019-01-04T00:36:52.744Z,73.07
2019-01-04T00:39:23.702Z,73.12
2019-01-04T00:41:54.545Z,73.72
2019-01-04T00:44:25.354Z,73.05
2019-01-04T00:46:56.661Z,72.71
2019-01-04T00:49:27.473Z,73.17
2019-01-04T00:51:58.353Z,73.04
2019-01-04T00:54:29.224Z,72.64
2019-01-04T00:57:50.278Z,72.72
2019-01-04T01:00:57.111Z,72.36
2019-01-04T01:03:55.577Z,72.20
2019-01-04T01:06:57.258Z,72.29
2019-01-04T01:10:04.309Z,71.80
2019-01-04T01:13:21.132Z,72.14
2019-01-04T01:16:33.294Z,72.54
2019-01-04T01:19:55.282Z,72.91
2019-01-04T01:22:46.585Z,72.82
2019-01-04T01:26:02.294Z,72.73
2019-01-04T01:29:09.521Z,72.61
2019-01-04T01:32:17.675Z,72.89
2019-01-04T01:35:28.664Z,72.97
2019-01-04T01:38:34.931Z,73.30
2019-01-04T01:42:14.366Z,73.24
2019-01-04T01:45:22.002Z,73.46
2019-01-04T01:48:13.822Z,72.55
2019-01-04T01:51:36.560Z,72.68
2019-01-04T01:54:07.356Z,72.60
2019-01-04T01:56:38.168Z,72.46
2019-01-04T01:59:09.048Z,72.29
2019-01-04T02:01:39.904Z,72.59
2019-01-04T02:04:10.845Z,73.24
2019-01-04T02:06:41.706Z,72.10
2019-01-04T02:09:12.506Z,72.55
2019-01-04T02:11:43.422Z,72.79
2019-01-04T02:14:14.309Z,72.89
2019-01-04T02:16:45.129Z,72.80
2019-01-04T02:19:16.065Z,72.83
2019-01-04T02:21:46.926Z,72.99
2019-01-04T02:24:17.759Z,73.18
2019-01-04T02:26:48.605Z,73.34
2019-01-04T02:29:19.879Z,73.72
2019-01-04T02:31:50.767Z,73.61
2019-01-04T02:34:21.607Z,73.45
2019-01-04T02:36:52.437Z,72.88
2019-01-04T02:39:23.405Z,73.28
2019-01-04T02:41:54.286Z,74.04
2019-01-04T02:44:25.088Z,73.90
2019-01-04T02:46:55.933Z,73.42
2019-01-04T02:49:26.841Z,73.08
2019-01-04T02:51:57.729Z,72.51
2019-01-04T02:54:28.974Z,73.00
2019-01-04T02:56:59.771Z,72.66
2019-01-04T02:59:30.596Z,72.50
2019-01-04T03:02:01.391Z,72.86
2019-01-04T03:04:32.442Z,73.06
2019-01-04T03:07:03.220Z,72.75
2019-01-04T03:09:34.152Z,72.98
2019-01-04T03:12:05.018Z,72.41
2019-01-04T03:14:35.879Z,72.68
2019-01-04T03:17:06.699Z,72.23
2019-01-04T03:19:37.797Z,72.32
2019-01-04T03:22:08.590Z,72.75
2019-01-04T03:24:39.455Z,72.93
2019-01-04T03:27:10.367Z,73.06
2019-01-04T03:29:41.288Z,72.99
2019-01-04T03:32:12.129Z,72.40
2019-01-04T03:34:42.926Z,72.65
2019-01-04T03:37:13.700Z,72.69
2019-01-04T03:39:44.573Z,72.54
2019-01-04T03:42:15.353Z,72.47
2019-01-04T03:44:46.159Z,72.56
2019-01-04T03:47:16.959Z,72.45
2019-01-04T03:49:47.807Z,72.38
2019-01-04T03:52:18.619Z,72.47
2019-01-04T03:54:49.494Z,73.24
2019-01-04T03:57:20.411Z,73.00
2019-01-04T03:59:51.270Z,73.07
2019-01-04T04:02:22.101Z,72.59
2019-01-04T04:04:52.911Z,72.60
2019-01-04T04:07:23.777Z,72.50
2019-01-04T04:09:54.659Z,72.18
2019-01-04T04:12:25.632Z,72.13
2019-01-04T04:14:56.605Z,72.04
2019-01-04T04:17:27.481Z,72.33
2019-01-04T04:19:58.586Z,72.48
2019-01-04T04:22:29.501Z,72.67
2019-01-04T04:25:00.309Z,73.24
2019-01-04T04:27:31.102Z,73.09
2019-01-04T04:30:02.032Z,72.69
2019-01-04T04:32:33.914Z,72.61
2019-01-04T04:35:04.940Z,72.78
2019-01-04T04:37:35.742Z,73.03
2019-01-04T04:40:06.603Z,73.01
2019-01-04T04:42:37.716Z,73.24
2019-01-04T04:45:08.519Z,73.21
2019-01-04T04:47:39.318Z,73.26
2019-01-04T04:50:10.132Z,73.15
2019-01-04T04:52:40.932Z,73.39
2019-01-04T04:55:11.806Z,73.35
2019-01-04T04:57:42.605Z,73.11
2019-01-04T05:00:13.403Z,73.29
2019-01-04T05:02:44.281Z,73.00
2019-01-04T05:05:15.171Z,72.87
2019-01-04T05:07:45.968Z,72.94
2019-01-04T05:10:16.776Z,72.73
2019-01-04T05:12:47.615Z,73.11
2019-01-04T05:15:18.423Z,72.85
2019-01-04T05:17:49.306Z,73.18
2019-01-04T05:20:20.131Z,73.79
2019-01-04T05:22:50.911Z,73.55
2019-01-04T05:25:21.725Z,73.25
2019-01-04T05:27:53.673Z,72.67
2019-01-04T05:30:24.515Z,72.33
2019-01-04T05:32:55.331Z,72.56
2019-01-04T05:35:26.136Z,72.58
2019-01-04T05:37:56.936Z,72.19
2019-01-04T05:40:27.932Z,72.84
2019-01-04T05:42:58.709Z,72.57
2019-01-04T05:45:29.526Z,72.86
2019-01-04T05:48:00.370Z,72.69
2019-01-04T05:50:31.173Z,72.42
2019-01-04T05:53:01.997Z,72.95
2019-01-04T05:55:32.794Z,73.22
2019-01-04T05:58:03.590Z,73.70
2019-01-04T06:00:34.476Z,73.19
2019-01-04T06:03:05.291Z,73.04
2019-01-04T06:05:36.140Z,73.20
2019-01-04T06:08:06.950Z,73.25
2019-01-04T06:10:38.104Z,73.39
2019-01-04T06:13:08.925Z,73.44
2019-01-04T06:15:39.836Z,73.23
2019-01-04T06:18:10.693Z,73.34
2019-01-04T06:20:41.585Z,73.51
2019-01-04T06:23:12.386Z,73.50
2019-01-04T06:25:43.235Z,73.03
2019-01-04T06:28:14.044Z,73.30
2019-01-04T06:30:44.920Z,72.90
2019-01-04T06:33:15.897Z,72.96
2019-01-04T06:35:46.881Z,73.59
2019-01-04T06:38:17.704Z,73.82
2019-01-04T06:40:48.507Z,73.63
2019-01-04T06:43:19.396Z,73.79
2019-01-04T06:45:50.383Z,74.16
2019-01-04T06:48:21.292Z,73.81
2019-01-04T06:50:52.156Z,73.69
2019-01-04T06:53:23.038Z,73.70
2019-01-04T06:55:59.391Z,73.36
2019-01-04T06:58:30.184Z,72.73
2019-01-04T07:01:00.995Z,73.00
2019-01-04T07:03:32.008Z,73.27
2019-01-04T07:06:02.838Z,73.58
2019-01-04T07:08:33.632Z,73.60
2019-01-04T07:11:04.460Z,73.10
2019-01-04T07:13:35.374Z,73.23
2019-01-04T07:16:06.204Z,73.02
2019-01-04T07:18:36.985Z,73.48
2019-01-04T07:21:07.831Z,73.34
2019-01-04T07:23:38.631Z,74.06
2019-01-04T07:26:09.493Z,74.03
2019-01-04T07:28:41.141Z,73.08
2019-01-04T07:31:15.095Z,73.62
2019-01-04T07:33:46.856Z,73.97
2019-01-04T07:36:17.843Z,73.95
2019-01-04T07:38:48.729Z,73.95
2019-01-04T07:41:19.540Z,73.92
2019-01-04T07:43:50.412Z,73.57
2019-01-04T07:46:21.284Z,73.72
2019-01-04T07:48:52.183Z,74.01
2019-01-04T07:51:23.050Z,73.71
2019-01-04T07:53:53.952Z,73.35
2019-01-04T07:56:24.882Z,73.47
2019-01-04T07:58:55.659Z,73.73
2019-01-04T08:01:26.468Z,73.32
2019-01-04T08:03:57.277Z,72.84
2019-01-04T08:06:28.181Z,73.15
2019-01-04T08:08:58.989Z,73.31
2019-01-04T08:11:29.796Z,73.39
2019-01-04T08:14:00.652Z,73.47
2019-01-04T08:16:31.454Z,73.50
2019-01-04T08:19:02.343Z,73.20
2019-01-04T08:21:33.267Z,73.03
2019-01-04T08:24:04.044Z,73.87
2019-01-04T08:26:34.974Z,73.33
2019-01-04T08:29:05.977Z,74.76
2019-01-04T08:31:36.857Z,73.74
2019-01-04T08:34:07.843Z,73.64
2019-01-04T08:36:38.727Z,74.32
2019-01-04T08:39:09.562Z,74.38
2019-01-04T08:41:40.395Z,74.68
2019-01-04T08:44:11.208Z,74.82
2019-01-04T08:46:42.024Z,75.11
2019-01-04T08:49:12.908Z,75.25
2019-01-04T08:51:43.749Z,75.22
2019-01-04T08:54:14.548Z,75.42
2019-01-04T08:56:45.442Z,75.13
2019-01-04T08:59:16.279Z,75.26
2019-01-04T09:01:47.079Z,75.02
2019-01-04T09:04:17.878Z,75.25
2019-01-04T09:06:48.854Z,75.34
2019-01-04T09:09:20.020Z,75.34
2019-01-04T09:11:50.836Z,75.44
2019-01-04T09:14:21.641Z,75.64
2019-01-04T09:16:52.454Z,75.45
2019-01-04T09:19:23.258Z,75.96
2019-01-04T09:21:54.150Z,76.16
2019-01-04T09:24:24.950Z,76.21
2019-01-04T09:26:55.764Z,76.12
2019-01-04T09:29:26.574Z,76.63
2019-01-04T09:31:57.567Z,76.82
2019-01-04T09:34:28.366Z,77.05
2019-01-04T09:36:59.211Z,76.79
2019-01-04T09:39:30.350Z,77.04
2019-01-04T09:42:08.693Z,77.07
2019-01-04T09:44:39.487Z,78.15
2019-01-04T09:47:10.312Z,78.38
2019-01-04T09:49:41.123Z,78.23
2019-01-04T09:52:11.930Z,79.38
2019-01-04T09:54:42.731Z,79.12
2019-01-04T09:57:13.807Z,79.22
2019-01-04T09:59:44.603Z,79.14
2019-01-04T10:02:15.437Z,79.48
2019-01-04T10:04:46.273Z,79.23
2019-01-04T10:07:17.097Z,79.45
2019-01-04T10:09:48.061Z,79.88
2019-01-04T10:12:18.898Z,79.98
2019-01-04T10:14:49.764Z,80.02
2019-01-04T10:17:20.572Z,79.92
2019-01-04T10:19:51.647Z,79.54
2019-01-04T10:22:22.663Z,79.59
2019-01-04T10:24:53.456Z,79.73
2019-01-04T10:27:24.283Z,80.40
2019-01-04T10:29:55.099Z,80.62
2019-01-04T10:32:25.961Z,80.58
2019-01-04T10:34:56.932Z,81.17
2019-01-04T10:37:27.814Z,80.40
2019-01-04T10:39:58.618Z,80.17
2019-01-04T10:42:29.454Z,80.01
2019-01-04T10:45:00.278Z,79.19
2019-01-04T10:47:31.092Z,78.50
2019-01-04T10:50:01.895Z,78.55
2019-01-04T10:52:32.719Z,78.99
2019-01-04T10:55:03.603Z,78.88
2019-01-04T10:57:34.479Z,79.26
2019-01-04T11:00:06.091Z,79.70
2019-01-04T11:02:38.070Z,80.01
2019-01-04T11:05:08.890Z,80.22
2019-01-04T11:07:39.708Z,79.61
2019-01-04T11:10:10.856Z,79.00
2019-01-04T11:12:41.681Z,78.40
2019-01-04T11:15:12.463Z,77.58
2019-01-04T11:17:43.270Z,78.79
2019-01-04T11:20:37.823Z,79.28
2019-01-04T11:23:37.885Z,79.15
2019-01-04T11:26:19.273Z,79.06
2019-01-04T11:29:34.108Z,78.90
2019-01-04T11:32:45.840Z,79.45
2019-01-04T11:35:59.682Z,78.96
2019-01-04T11:39:17.308Z,79.65
2019-01-04T11:42:27.959Z,79.83
2019-01-04T11:45:32.506Z,79.66
2019-01-04T11:48:15.741Z,79.79
2019-01-04T11:51:18.417Z,79.68
2019-01-04T11:53:49.234Z,79.91
2019-01-04T11:56:20.034Z,79.39
2019-01-04T11:58:50.939Z,79.62
2019-01-04T12:01:21.803Z,79.20
2019-01-04T12:04:00.573Z,79.33
2019-01-04T12:06:31.377Z,80.21
2019-01-04T12:09:02.206Z,79.94
2019-01-04T12:11:34.271Z,79.05
2019-01-04T12:14:05.099Z,78.59
2019-01-04T12:16:35.899Z,79.27
2019-01-04T12:19:06.701Z,78.82
2019-01-04T12:21:37.509Z,78.60
2019-01-04T12:24:08.333Z,77.76
2019-01-04T12:26:39.242Z,76.47
2019-01-04T12:29:10.037Z,78.14
2019-01-04T12:31:40.844Z,77.86
2019-01-04T12:34:16.583Z,78.15
2019-01-04T12:36:44.257Z,78.37
2019-01-04T12:39:15.071Z,78.23
2019-01-04T12:41:45.882Z,79.20
2019-01-04T12:44:16.691Z,78.35
2019-01-04T12:46:47.502Z,78.15
2019-01-04T12:49:18.294Z,77.35
2019-01-04T12:51:49.088Z,77.57
2019-01-04T12:54:19.898Z,77.81
2019-01-04T12:56:51.059Z,78.29
2019-01-04T12:59:21.925Z,77.96
2019-01-04T13:01:52.911Z,77.68
2019-01-04T13:04:23.689Z,77.21
2019-01-04T13:06:54.517Z,77.00
2019-01-04T13:09:25.289Z,77.05
2019-01-04T13:11:56.102Z,77.20
2019-01-04T13:14:27.078Z,77.77
2019-01-04T13:16:57.891Z,77.58
2019-01-04T13:19:28.885Z,78.65
2019-01-04T13:21:59.709Z,78.43
2019-01-04T13:24:30.713Z,79.07
2019-01-04T13:27:01.610Z,79.38
2019-01-04T13:29:32.386Z,79.16
2019-01-04T13:32:03.190Z,79.43
2019-01-04T13:34:33.983Z,79.35
2019-01-04T13:37:04.881Z,78.60
2019-01-04T13:39:35.691Z,79.07
2019-01-04T13:42:06.534Z,79.43
2019-01-04T13:44:37.307Z,79.81
2019-01-04T13:47:08.203Z,79.60
2019-01-04T13:49:39.034Z,79.11
2019-01-04T13:52:09.898Z,78.79
2019-01-04T13:54:40.752Z,78.91
2019-01-04T13:57:11.582Z,78.43
2019-01-04T13:59:42.400Z,78.22
2019-01-04T14:02:13.221Z,79.10
2019-01-04T14:04:44.111Z,80.03
2019-01-04T14:07:14.931Z,80.75
2019-01-04T14:09:45.734Z,80.60
2019-01-04T14:12:16.549Z,80.28
2019-01-04T14:14:47.348Z,80.59
2019-01-04T14:17:19.165Z,81.02
2019-01-04T14:19:49.964Z,80.85
2019-01-04T14:22:20.888Z,81.20
2019-01-04T14:24:52.757Z,81.26
2019-01-04T14:27:23.564Z,81.64
2019-01-04T14:29:54.378Z,81.41
2019-01-04T14:32:25.221Z,81.20
2019-01-04T14:34:56.072Z,80.77
2019-01-04T14:37:26.935Z,80.55
2019-01-04T14:39:57.715Z,80.71
2019-01-04T14:42:28.525Z,80.34
2019-01-04T14:44:59.308Z,80.46
2019-01-04T14:47:30.136Z,81.02
2019-01-04T14:50:00.947Z,80.63
2019-01-04T14:52:31.753Z,81.05
2019-01-04T14:55:02.559Z,80.80
2019-01-04T14:57:33.362Z,80.52
2019-01-04T15:00:04.739Z,80.29
2019-01-04T15:02:35.546Z,80.61
2019-01-04T15:05:07.099Z,80.32
2019-01-04T15:07:37.859Z,80.43
2019-01-04T15:10:09.619Z,80.45
2019-01-04T15:12:41.397Z,80.34
2019-01-04T15:15:12.198Z,80.14
2019-01-04T15:17:43.031Z,79.88
2019-01-04T15:20:13.807Z,79.73
2019-01-04T15:22:44.608Z,79.57
2019-01-04T15:25:15.481Z,79.36
2019-01-04T15:27:46.287Z,79.47
2019-01-04T15:30:17.104Z,79.25
2019-01-04T15:32:47.907Z,79.27
2019-01-04T15:35:18.711Z,79.15
2019-01-04T15:37:49.529Z,79.16
2019-01-04T15:40:20.347Z,79.03
2019-01-04T15:42:51.150Z,78.50
2019-01-04T15:45:21.957Z,78.41
2019-01-04T15:47:52.800Z,78.73
2019-01-04T15:50:23.591Z,78.91
2019-01-04T15:52:54.394Z,78.90
2019-01-04T15:55:25.194Z,78.97
2019-01-04T15:57:56.019Z,78.71
2019-01-04T16:00:26.901Z,78.71
2019-01-04T16:02:57.711Z,78.57
2019-01-04T16:05:28.556Z,78.83
2019-01-04T16:07:59.388Z,79.04
2019-01-04T16:10:30.203Z,78.78
2019-01-04T16:13:01.118Z,78.88
2019-01-04T16:15:31.909Z,78.77
2019-01-04T16:18:02.758Z,78.97
2019-01-04T16:20:33.553Z,78.98
2019-01-04T16:23:04.549Z,79.07
2019-01-04T16:25:35.391Z,78.96
2019-01-04T16:28:06.235Z,78.73
2019-01-04T16:30:37.017Z,78.56
2019-01-04T16:33:07.818Z,78.33
2019-01-04T16:35:38.608Z,78.51
2019-01-04T16:38:09.423Z,78.75
2019-01-04T16:40:40.384Z,79.02
2019-01-04T16:43:11.330Z,78.75
2019-01-04T16:45:43.763Z,78.52
2019-01-04T16:48:14.669Z,78.57
2019-01-04T16:50:45.481Z,78.28
2019-01-04T16:53:16.357Z,78.46
2019-01-04T16:55:47.174Z,78.22
2019-01-04T16:58:18.012Z,77.91
2019-01-04T17:00:48.821Z,77.93
2019-01-04T17:03:19.629Z,77.64
2019-01-04T17:05:50.430Z,77.53
2019-01-04T17:08:21.244Z,77.38
2019-01-04T17:10:52.055Z,76.94
2019-01-04T17:13:22.857Z,77.06
2019-01-04T17:15:53.665Z,76.58
2019-01-04T17:18:24.494Z,76.67
2019-01-04T17:20:55.302Z,76.78
2019-01-04T17:23:26.108Z,77.05
2019-01-04T17:25:56.918Z,77.55
2019-01-04T17:28:27.747Z,77.26
2019-01-04T17:30:58.536Z,76.96
2019-01-04T17:33:29.389Z,76.74
2019-01-04T17:36:00.176Z,76.61
2019-01-04T17:38:30.984Z,76.11
2019-01-04T17:41:02.244Z,75.85
2019-01-04T17:43:33.074Z,75.63
2019-01-04T17:46:03.893Z,74.78
2019-01-04T17:48:34.693Z,74.92
2019-01-04T17:51:05.558Z,74.92
2019-01-04T17:53:36.372Z,74.68
2019-01-04T17:56:07.169Z,74.82
2019-01-04T17:58:37.997Z,74.44
2019-01-04T18:01:08.841Z,74.28
2019-01-04T18:03:39.641Z,74.04
2019-01-04T18:06:10.425Z,74.23
2019-01-04T18:08:41.268Z,73.67
2019-01-04T18:11:12.039Z,73.60
2019-01-04T18:13:42.890Z,73.65
2019-01-04T18:16:13.673Z,73.50
2019-01-04T18:18:44.461Z,73.70
2019-01-04T18:21:15.262Z,73.40
2019-01-04T18:23:46.069Z,73.76
2019-01-04T18:26:16.907Z,73.61
2019-01-04T18:28:47.711Z,73.44
2019-01-04T18:31:18.517Z,72.99
2019-01-04T18:33:49.328Z,73.42
2019-01-04T18:36:20.110Z,72.90
2019-01-04T18:38:50.890Z,72.57
2019-01-04T18:41:22.618Z,72.36
2019-01-04T18:43:53.540Z,72.31
2019-01-04T18:46:24.344Z,71.98
2019-01-04T18:48:55.384Z,71.97
2019-01-04T18:51:26.092Z,71.70
2019-01-04T18:53:56.886Z,71.85
2019-01-04T18:56:27.683Z,71.75
2019-01-04T18:58:58.695Z,71.57
2019-01-04T19:01:29.464Z,71.31
2019-01-04T19:04:00.253Z,71.54
2019-01-04T19:06:31.320Z,71.30
2019-01-04T19:09:02.131Z,71.16
2019-01-04T19:11:33.232Z,71.03
2019-01-04T19:14:04.017Z,70.90
2019-01-04T19:16:34.799Z,71.15
2019-01-04T19:19:06.459Z,70.44
2019-01-04T19:21:37.219Z,71.12
2019-01-04T19:24:08.004Z,70.41
2019-01-04T19:26:38.859Z,70.19
2019-01-04T19:29:09.732Z,70.57
2019-01-04T19:31:40.524Z,70.27
2019-01-04T19:34:11.302Z,71.10
2019-01-04T19:36:42.110Z,71.35
2019-01-04T19:39:12.880Z,70.62
2019-01-04T19:41:43.681Z,70.26
2019-01-04T19:44:15.263Z,70.81
2019-01-04T19:46:46.045Z,70.40
2019-01-04T19:49:16.846Z,70.58
2019-01-04T19:51:47.624Z,70.66
2019-01-04T19:54:18.406Z,70.93
2019-01-04T19:56:49.184Z,71.65
2019-01-04T19:59:19.986Z,71.12
2019-01-04T20:01:50.793Z,70.67
2019-01-04T20:04:21.549Z,70.80
2019-01-04T20:07:54.387Z,70.95
2019-01-04T20:11:19.316Z,71.03
2019-01-04T20:14:48.814Z,70.43
2019-01-04T20:17:56.060Z,69.49
2019-01-04T20:20:46.362Z,69.55
2019-01-04T20:23:48.620Z,69.27
2019-01-04T20:26:37.132Z,69.39
2019-01-04T20:29:26.938Z,69.61
2019-01-04T20:32:16.556Z,69.71
2019-01-04T20:35:21.679Z,70.11
2019-01-04T20:38:10.533Z,70.54
2019-01-04T20:40:59.233Z,70.69
2019-01-04T20:44:01.445Z,70.83
2019-01-04T20:46:54.354Z,71.99
2019-01-04T20:49:43.069Z,72.08
2019-01-04T20:52:23.353Z,72.42
2019-01-04T20:55:25.249Z,73.36
2019-01-04T20:58:26.460Z,73.27
2019-01-04T21:01:18.678Z,73.90
2019-01-04T21:04:07.493Z,73.46
2019-01-04T21:06:53.130Z,73.26
2019-01-04T21:09:51.864Z,73.24
2019-01-04T21:12:39.537Z,73.47
2019-01-04T21:15:28.043Z,73.81
2019-01-04T21:18:33.692Z,73.65
2019-01-04T21:21:29.725Z,73.80
2019-01-04T21:24:18.174Z,74.77
2019-01-04T21:27:14.054Z,75.19
2019-01-04T21:30:07.826Z,75.63
2019-01-04T21:33:12.928Z,76.57
2019-01-04T21:36:08.808Z,76.33
2019-01-04T21:38:58.962Z,76.34
2019-01-04T21:41:46.823Z,76.26
2019-01-04T21:44:43.078Z,76.66
2019-01-04T21:47:33.028Z,77.17
2019-01-04T21:50:28.898Z,77.56
2019-01-04T21:53:16.784Z,77.47
2019-01-04T21:56:05.587Z,77.92
2019-01-04T21:59:04.749Z,78.07
2019-01-04T22:02:03.458Z,78.49
2019-01-04T22:04:52.092Z,78.74
2019-01-04T22:07:42.490Z,79.02
2019-01-04T22:10:31.190Z,79.02
2019-01-04T22:13:24.089Z,79.20
2019-01-04T22:16:18.485Z,79.18
2019-01-04T22:19:09.800Z,79.43
2019-01-04T22:22:18.023Z,79.46
2019-01-04T22:25:10.782Z,79.77
2019-01-04T22:27:59.208Z,80.10
2019-01-04T22:30:44.177Z,80.30
2019-01-04T22:33:43.017Z,80.07
2019-01-04T22:36:38.611Z,79.96
2019-01-04T22:39:25.802Z,79.83
2019-01-04T22:42:14.586Z,80.01
2019-01-04T22:45:10.201Z,80.05
2019-01-04T22:47:58.607Z,80.18
2019-01-04T22:51:00.294Z,80.32
2019-01-04T22:53:59.452Z,80.21
2019-01-04T22:56:41.281Z,80.05
2019-01-04T22:59:29.749Z,80.14
2019-01-04T23:02:34.601Z,80.14
2019-01-04T23:05:23.138Z,80.09
2019-01-04T23:08:13.813Z,80.30
2019-01-04T23:11:02.482Z,80.20
2019-01-04T23:13:55.844Z,80.28
2019-01-04T23:17:01.872Z,80.45
2019-01-04T23:19:44.182Z,80.18
2019-01-04T23:22:54.282Z,80.26
2019-01-04T23:25:56.362Z,80.20
2019-01-04T23:28:48.986Z,79.98
2019-01-04T23:31:46.323Z,80.42
2019-01-04T23:34:35.701Z,80.51
2019-01-04T23:37:40.730Z,80.33
2019-01-04T23:40:23.566Z,80.57
2019-01-04T23:43:16.366Z,80.49
2019-01-04T23:46:04.977Z,80.62
2019-01-04T23:49:06.795Z,80.29
2019-01-04T23:51:56.579Z,80.41
2019-01-04T23:54:54.151Z,80.03
2019-01-04T23:57:43.955Z,79.67
